Latest Weather Observations for Tuggeranong

IDN60901

Issued at 12:25 pm EST Tuesday 29 July 2014 (issued every 10 minutes, with the page automatically refreshed every 10 minutes)

About weather observations | Map of Canberra area stations | Latest observations for Canberra area | Other Formats
Station Details ID: 070339 Name: TUGGERANONG (ISABELLA PLAINS) AWS Lat: -35.42 Lon: 149.09 Height: 586.7 m
Data from the previous 72 hours. | See also: Recent months at Tuggeranong
Date/Time
EST
Tmp

°C
App
Tmp
°C
Dew
Point
°C
Rel
Hum
%
Delta-T

°C
Wind Press
QNH
hPa
Press
MSL
hPa
Rain
since
9 am
mm
Dir
 
Spd
km/h
Gust
km/h
Spd
kts
Gust
kts
29/12:00pm 15.9 9.8 2.7 41 6.2 WNW 24 41 13 22 1014.5 1015.5 0.0
29/11:30am 15.9 9.7 2.3 40 6.3 WNW 24 44 13 24 1014.3 - 0.0
29/11:00am 15.5 8.9 2.0 40 6.2 NW 26 44 14 24 1014.3 1015.3 0.0
29/10:30am 15.3 10.1 2.5 42 5.9 NNW 19 35 10 19 1015.8 - 0.0
29/10:00am 14.1 8.7 1.4 42 5.7 NW 19 30 10 16 1016.1 1017.1 0.0
29/09:30am 13.7 8.1 1.4 43 5.5 NW 20 39 11 21 1015.9 - 0.0
29/09:00am 12.9 7.2 0.6 43 5.3 NW 20 32 11 17 1015.8 1016.8 0.0
29/08:30am 12.1 5.6 0.2 44 5.1 NW 24 39 13 21 1015.5 - 0.0
29/08:00am 11.3 4.0 0.1 46 4.7 WNW 28 39 15 21 1015.4 1016.5 0.0
29/07:30am 11.1 3.8 -0.1 46 4.7 WNW 28 43 15 23 1015.3 - 0.0
29/07:00am 11.2 3.5 -0.3 45 4.8 WNW 30 44 16 24 1014.9 1015.9 0.0
29/06:30am 11.5 3.4 -0.3 44 5.0 WNW 32 44 17 24 1014.6 - 0.0
29/06:00am 11.5 4.2 0.0 45 4.9 WNW 28 43 15 23 1014.4 1015.4 0.0
29/05:30am 11.2 3.9 0.3 47 4.6 WNW 28 41 15 22 1014.6 - 0.0
29/05:00am 9.1 4.5 1.3 58 3.3 NW 15 24 8 13 1014.8 1015.8 0.0
29/04:30am 8.7 4.5 1.4 60 3.1 NW 13 30 7 16 1015.1 - 0.0
29/04:00am 7.9 5.0 1.7 65 2.6 W 6 11 3 6 1015.4 1016.5 0.0
29/03:30am 7.9 4.8 1.5 64 2.7 E 7 11 4 6 1015.3 - 0.0
29/03:00am 8.5 4.7 1.9 63 2.8 NE 11 17 6 9 1015.7 1016.7 0.0
29/02:30am 9.3 5.2 2.2 61 3.1 NNE 13 22 7 12 1015.8 - 0.0
29/02:00am 9.2 4.3 2.3 62 3.0 NNE 17 22 9 12 1016.2 1017.2 0.0
29/01:30am 8.2 4.9 2.7 68 2.4 N 9 17 5 9 1016.5 - 0.0
29/01:00am 8.2 4.9 2.4 67 2.5 N 9 15 5 8 1016.9 1018.0 0.0
29/12:30am 9.1 5.1 2.9 65 2.7 N 13 19 7 10 1017.2 - 0.0
29/12:00am 8.8 5.6 3.0 67 2.6 N 9 19 5 10 1017.7 1018.7 0.0
 
Date/Time
EST
Tmp

°C
App
Tmp
°C
Dew
Point
°C
Rel
Hum
%
Delta-T

°C
Wind Press
QNH
hPa
Press
MSL
hPa
Rain
since
9 am
mm
Dir
 
Spd
km/h
Gust
km/h
Spd
kts
Gust
kts
28/11:30pm 8.1 5.2 2.6 68 2.4 N 7 11 4 6 1017.7 - 0.0
28/11:00pm 8.8 6.0 3.2 68 2.5 NNE 7 11 4 6 1018.0 1019.0 0.0
28/10:30pm 9.8 6.7 3.5 65 2.8 N 9 19 5 10 1017.7 - 0.0
28/10:00pm 10.3 6.1 4.0 65 2.9 N 15 22 8 12 1017.9 1018.9 0.0
28/09:30pm 10.5 6.0 4.2 65 2.9 N 17 24 9 13 1018.2 - 0.0
28/09:00pm 9.8 6.1 4.6 70 2.4 N 13 20 7 11 1018.4 1019.5 0.0
28/08:30pm 9.7 5.7 5.1 73 2.1 NNE 15 20 8 11 1018.4 - 0.0
28/08:00pm 9.5 5.9 5.1 74 2.0 NNE 13 20 7 11 1018.5 1019.6 0.0
28/07:30pm 9.4 5.8 4.8 73 2.1 NE 13 19 7 10 1018.6 - 0.0
28/07:00pm 9.0 5.3 4.4 73 2.1 ENE 13 17 7 9 1018.7 1019.8 0.0
28/06:30pm 9.3 5.9 3.9 69 2.4 NE 11 15 6 8 1018.8 - 0.0
28/06:00pm 9.7 6.2 3.7 66 2.7 NE 11 20 6 11 1018.7 1019.8 0.0
28/05:30pm 10.3 7.5 2.9 60 3.3 N 7 13 4 7 1018.5 - 0.0
28/05:00pm 10.6 7.7 2.7 58 3.5 NNW 7 13 4 7 1018.5 1019.6 0.0
28/04:30pm 11.1 7.8 2.7 56 3.8 NW 9 19 5 10 1018.4 - 0.0
28/04:00pm 11.6 8.0 2.9 55 3.9 NNW 11 19 6 10 1018.3 1019.4 0.0
28/03:30pm 12.1 7.8 3.1 54 4.1 NNW 15 22 8 12 1018.3 - 0.0
28/03:00pm 12.0 7.3 3.3 55 4.0 NW 17 24 9 13 1018.3 1019.4 0.0
28/02:30pm 11.9 7.3 3.7 57 3.8 WNW 17 26 9 14 1018.3 - 0.0
28/02:00pm 12.0 7.5 4.2 59 3.6 WNW 17 24 9 13 1018.6 1019.7 0.0
28/01:30pm 12.4 8.0 4.9 60 3.6 NW 17 24 9 13 1018.7 - 0.0
28/01:00pm 11.5 7.2 5.4 66 2.9 N 17 24 9 13 1019.0 1020.1 0.0
28/12:30pm 11.3 6.4 5.2 66 2.9 NNW 20 28 11 15 1019.6 - 0.0
28/12:00pm 7.7 6.8 7.6 99 0.0 W 2 7 1 4 1020.4 1021.5 0.0
28/11:30am 5.9 4.6 5.9 100 0.0 S 2 7 1 4 1020.9 - 0.0
28/11:00am 5.2 2.8 5.2 100 0.0 SW 7 9 4 5 1021.6 1022.7 0.0
28/10:30am 4.7 2.8 4.7 100 0.0 WSW 4 7 2 4 1021.9 - 0.0
28/10:00am 3.8 2.4 3.8 100 0.0 CALM 0 0 0 0 1021.9 1023.0 0.0
28/09:30am 3.2 1.0 3.1 99 0.0 SSE 4 7 2 4 1021.9 - 0.0
28/09:00am 1.9 -0.9 1.8 99 0.0 ESE 6 9 3 5 1022.3 1023.5 0.2
28/08:30am 0.8 -1.5 0.7 99 0.0 ESE 2 7 1 4 1022.1 - 0.2
28/08:00am 0.3 -2.4 0.2 99 0.0 NE 4 7 2 4 1022.1 1023.2 0.2
28/07:30am 0.7 -1.2 0.6 99 0.0 CALM 0 0 0 0 1022.0 - 0.2
28/07:00am 0.5 -1.4 0.4 99 0.0 CALM 0 0 0 0 1021.8 1022.9 0.2
28/06:30am 0.0 -2.4 -0.1 99 0.0 ENE 2 6 1 3 1021.5 - 0.2
28/06:00am 0.2 -3.1 0.1 99 0.0 E 7 9 4 5 1021.6 1022.7 0.0
28/05:30am -0.1 -2.9 -0.2 99 0.0 ESE 4 9 2 5 1021.4 - 0.0
28/05:00am 0.1 -2.3 0.0 99 0.0 E 2 7 1 4 1021.4 1022.5 0.0
28/04:30am 0.2 -2.5 0.1 99 0.0 ESE 4 7 2 4 1020.7 - 0.0
28/04:00am -0.1 -3.3 -0.2 99 0.0 SSW 6 9 3 5 1021.5 1022.6 0.0
28/03:30am -0.3 -2.3 -0.4 99 0.0 CALM 0 6 0 3 1021.5 - 0.0
28/03:00am -0.1 -2.1 -0.4 98 0.1 CALM 0 0 0 0 1021.2 1022.3 0.0
28/02:30am 0.4 -1.5 0.3 99 0.0 CALM 0 0 0 0 1021.3 - 0.0
28/02:00am 0.8 -1.1 0.7 99 0.0 CALM 0 0 0 0 1021.1 1022.2 0.0
28/01:30am 1.0 -0.9 0.6 97 0.2 CALM 0 6 0 3 1021.6 - 0.0
28/01:00am 1.4 -0.5 0.7 95 0.3 CALM 0 0 0 0 1021.9 1023.0 0.0
28/12:30am 2.3 0.6 1.6 95 0.3 CALM 0 0 0 0 1021.9 - 0.0
28/12:00am 3.1 1.5 2.4 95 0.3 CALM 0 0 0 0 1022.0 1023.1 0.0
 
Date/Time
EST
Tmp

°C
App
Tmp
°C
Dew
Point
°C
Rel
Hum
%
Delta-T

°C
Wind Press
QNH
hPa
Press
MSL
hPa
Rain
since
9 am
mm
Dir
 
Spd
km/h
Gust
km/h
Spd
kts
Gust
kts
27/11:30pm 4.2 1.6 3.3 94 0.4 E 6 7 3 4 1022.2 - 0.0
27/11:00pm 4.6 2.8 3.3 91 0.6 SE 2 7 1 4 1022.5 1023.7 0.0
27/10:30pm 5.5 4.1 3.7 88 0.8 CALM 0 6 0 3 1022.6 - 0.0
27/10:00pm 6.7 4.2 4.5 86 1.0 N 7 13 4 7 1022.1 1023.2 0.0
27/09:30pm 6.8 3.2 5.0 88 0.8 N 13 17 7 9 1022.5 - 0.0
27/09:00pm 6.6 3.8 5.1 90 0.7 NNW 9 13 5 7 1022.6 1023.8 0.0
27/08:30pm 6.9 3.7 5.1 88 0.8 N 11 19 6 10 1022.4 - 0.0
27/08:00pm 7.1 4.3 5.1 87 0.9 N 9 15 5 8 1022.3 1023.5 0.0
27/07:30pm 7.4 4.2 5.0 85 1.1 N 11 22 6 12 1022.3 - 0.0
27/07:00pm 7.7 3.7 4.8 82 1.3 N 15 20 8 11 1022.4 1023.6 0.0
27/06:30pm 8.6 4.5 4.4 75 1.9 N 15 22 8 12 1022.3 - 0.0
27/06:00pm 8.9 5.3 4.9 76 1.8 N 13 20 7 11 1022.3 1023.5 0.0
27/05:30pm 10.2 5.8 4.6 68 2.6 N 17 24 9 13 1021.8 - 0.0
27/05:00pm 10.8 6.1 5.1 68 2.7 N 19 28 10 15 1021.5 1022.6 0.0
27/04:30pm 11.6 6.9 5.3 65 3.0 N 19 28 10 15 1021.4 - 0.0
27/04:00pm 12.2 7.6 5.4 63 3.2 N 19 28 10 15 1021.6 1022.7 0.0
27/03:30pm 13.2 9.0 5.9 61 3.6 N 17 28 9 15 1021.4 - 0.0
27/03:00pm 13.2 9.1 6.1 62 3.5 N 17 24 9 13 1021.4 1022.5 0.0
27/02:30pm 13.1 8.9 5.8 61 3.6 N 17 24 9 13 1021.6 - 0.0
27/02:00pm 13.0 8.4 5.7 61 3.5 N 19 28 10 15 1021.7 1022.8 0.0
27/01:30pm 13.3 10.4 4.5 55 4.2 NNW 9 17 5 9 1022.0 - 0.0
27/01:00pm 13.3 9.6 4.2 54 4.3 NW 13 19 7 10 1022.4 1023.6 0.0
27/12:30pm 12.6 9.7 4.8 59 3.7 N 9 15 5 8 1023.2 - 0.0
27/12:00pm 11.6 9.1 4.8 63 3.2 NNW 7 17 4 9 1023.7 1024.8 0.0
27/11:30am 11.2 8.3 4.9 65 3.0 N 9 15 5 8 1024.2 - 0.0
27/11:00am 9.9 6.9 4.1 67 2.6 NW 9 15 5 8 1024.9 1026.0 0.0
27/10:30am 8.6 6.1 3.8 72 2.2 NNW 6 7 3 4 1025.4 - 0.0
27/10:00am 6.8 5.0 3.2 78 1.6 WNW 2 7 1 4 1025.8 1027.0 0.0
27/09:30am 4.7 2.0 2.7 87 0.8 W 6 9 3 5 1025.7 - 0.0
27/09:00am 2.7 0.2 1.7 93 0.4 SW 4 7 2 4 1025.5 1026.7 -
27/08:30am 1.2 -0.7 0.6 96 0.2 CALM 0 0 0 0 1025.6 - -
27/08:00am -1.4 -3.6 -1.5 99 0.0 CALM 0 0 0 0 1025.6 1026.8 -
27/07:30am -2.3 -4.6 -2.7 97 0.0 CALM 0 0 0 0 1025.2 - -
27/07:00am -2.5 -4.9 -2.9 97 0.0 CALM 0 0 0 0 1025.0 1026.1 -
27/06:30am -2.2 -4.5 -2.5 98 0.0 CALM 0 0 0 0 1024.5 - -
27/06:00am -2.7 -5.1 -3.1 97 0.0 CALM 0 0 0 0 1024.3 1025.5 -
27/05:30am -2.3 -4.6 -2.7 97 0.0 CALM 0 0 0 0 1024.0 - -
27/05:00am -1.8 -4.1 -2.1 98 0.0 CALM 0 0 0 0 1024.1 1025.3 -
27/04:30am -2.0 -4.3 -2.4 97 0.0 CALM 0 0 0 0 1023.9 - -
27/04:00am -1.4 -4.0 -1.7 98 0.0 E 2 7 1 4 1023.8 1025.0 -
27/03:30am -1.4 -3.6 -1.7 98 0.0 CALM 0 0 0 0 1024.1 - -
27/03:00am -0.4 -3.6 -0.5 99 0.0 ENE 6 7 3 4 1024.0 1025.2 -
27/02:30am -1.1 -3.3 -1.5 97 0.1 CALM 0 0 0 0 1024.2 - -
27/02:00am -0.8 -3.0 -1.2 97 0.1 CALM 0 0 0 0 1024.0 1025.2 -
27/01:30am -0.1 -2.1 -0.4 98 0.1 CALM 0 0 0 0 1024.0 - -
27/01:00am 0.3 -1.7 0.0 98 0.1 CALM 0 0 0 0 1024.0 1025.2 -
27/12:30am 0.2 -2.6 -0.4 96 0.2 W 4 9 2 5 1024.1 - -
27/12:00am 0.9 -1.1 0.2 95 0.3 CALM 0 0 0 0 1024.2 1025.4 -
 
Date/Time
EST
Tmp

°C
App
Tmp
°C
Dew
Point
°C
Rel
Hum
%
Delta-T

°C
Wind Press
QNH
hPa
Press
MSL
hPa
Rain
since
9 am
mm
Dir
 
Spd
km/h
Gust
km/h
Spd
kts
Gust
kts
26/11:30pm 1.6 -1.4 0.9 95 0.3 ESE 6 9 3 5 1024.3 - -
26/11:00pm 2.2 -0.3 1.6 96 0.2 ENE 4 7 2 4 1024.3 1025.5 -
26/10:30pm 2.4 -0.5 1.7 95 0.3 ENE 6 9 3 5 1024.3 - -
26/10:00pm 2.8 0.3 1.8 93 0.4 E 4 7 2 4 1024.4 1025.6 -
26/09:30pm 3.2 1.4 1.4 88 0.7 CALM 0 6 0 3 1024.2 - -
26/09:00pm 4.1 1.3 2.0 86 0.9 E 6 9 3 5 1024.1 1025.3 0.0
26/08:30pm 5.4 2.1 2.6 82 1.2 E 9 11 5 6 1024.0 - -
26/08:00pm 6.3 3.4 2.8 78 1.5 ENE 7 13 4 7 1023.7 1024.8 -
26/07:30pm 7.3 4.7 3.0 74 1.9 NW 6 7 3 4 1023.5 - -
26/07:00pm 8.3 5.6 2.8 68 2.4 WSW 6 9 3 5 1023.4 1024.5 -
26/06:30pm 9.0 6.2 3.0 66 2.7 W 7 9 4 5 1023.3 - -
26/06:00pm 9.4 5.8 2.9 64 2.9 WNW 11 15 6 8 1023.0 1024.1 -
26/05:30pm 10.2 6.9 2.6 59 3.4 WSW 9 13 5 7 1022.7 - -
26/05:00pm 10.5 7.3 3.3 61 3.2 SW 9 13 5 7 1022.4 1023.6 -
26/04:30pm 11.0 7.5 3.5 60 3.4 W 11 13 6 7 1022.1 - -
26/04:00pm 12.4 8.7 4.4 58 3.7 W 13 26 7 14 1022.0 1023.1 -
26/03:30pm 11.9 9.4 6.4 69 2.7 NW 9 15 5 8 1022.0 - -
26/03:00pm 9.9 7.5 7.0 82 1.4 WNW 9 15 5 8 1021.9 1023.0 -
26/02:30pm 9.5 7.7 7.1 85 1.2 N 6 9 3 5 1021.9 - -
26/02:00pm 9.7 7.7 6.4 80 1.6 SSE 6 13 3 7 1021.9 1023.0 0.0
26/01:30pm 8.7 6.8 6.7 87 1.0 ENE 6 9 3 5 1022.0 - 0.0
26/01:00pm 7.7 4.7 6.2 90 0.7 W 11 17 6 9 1022.7 1023.9 0.0
26/12:30pm 7.8 5.5 5.9 88 0.9 NNW 7 11 4 6 1022.9 - 0.0

Latest Capital City Observations: Canberra | Sydney | Melbourne | Brisbane | Adelaide | Perth | Hobart | Darwin

Other Formats:

Comma delimited format used in spreadsheet applications
http://www.bom.gov.au/fwo/IDN60903/IDN60903.94925.axf

JavaScript Object Notation format (JSON) in row-major order
http://www.bom.gov.au/fwo/IDN60903/IDN60903.94925.json